createdAt,value
2019-02-02T00:01:24.724Z,16.67
2019-02-02T00:03:53.955Z,18.20
2019-02-02T00:06:23.215Z,17.90
2019-02-02T00:08:52.446Z,18.90
2019-02-02T00:11:21.701Z,21.83
2019-02-02T00:13:50.939Z,19.37
2019-02-02T00:16:20.316Z,19.00
2019-02-02T00:18:49.795Z,21.37
2019-02-02T00:21:18.980Z,19.63
2019-02-02T00:23:48.211Z,16.83
2019-02-02T00:26:17.440Z,17.30
2019-02-02T00:28:46.744Z,15.90
2019-02-02T00:31:16.083Z,16.23
2019-02-02T00:33:45.300Z,17.07
2019-02-02T00:36:15.043Z,14.50
2019-02-02T00:38:44.235Z,16.27
2019-02-02T00:41:13.486Z,15.03
2019-02-02T00:43:42.758Z,14.33
2019-02-02T00:46:11.991Z,16.00
2019-02-02T00:48:41.246Z,14.73
2019-02-02T00:51:11.945Z,15.33
2019-02-02T00:53:41.136Z,14.90
2019-02-02T00:56:10.494Z,16.30
2019-02-02T00:58:39.754Z,14.80
2019-02-02T01:01:08.979Z,14.93
2019-02-02T01:03:38.236Z,15.27
2019-02-02T01:06:07.571Z,15.73
2019-02-02T01:08:36.751Z,14.27
2019-02-02T01:11:07.417Z,15.40
2019-02-02T01:13:36.751Z,15.33
2019-02-02T01:16:06.303Z,17.70
2019-02-02T01:18:35.483Z,16.80
2019-02-02T01:21:04.743Z,16.33
2019-02-02T01:23:33.956Z,15.27
2019-02-02T01:26:03.291Z,17.70
2019-02-02T01:28:32.623Z,14.93
2019-02-02T01:31:01.968Z,14.43
2019-02-02T01:33:31.147Z,15.83
2019-02-02T01:36:00.298Z,17.00
2019-02-02T01:38:29.476Z,17.13
2019-02-02T01:40:58.898Z,15.57
2019-02-02T01:43:28.083Z,17.47
2019-02-02T01:45:57.309Z,15.40
2019-02-02T01:48:26.568Z,14.97
2019-02-02T01:50:55.801Z,16.20
2019-02-02T01:53:25.061Z,19.13
2019-02-02T01:55:54.313Z,17.07
2019-02-02T01:58:23.567Z,15.53
2019-02-02T02:00:52.799Z,18.67
2019-02-02T02:03:21.985Z,17.33
2019-02-02T02:05:51.229Z,18.73
2019-02-02T02:08:20.520Z,17.53
2019-02-02T02:10:49.750Z,17.70
2019-02-02T02:13:19.001Z,20.63
2019-02-02T02:15:48.239Z,17.53
2019-02-02T02:18:17.434Z,18.60
2019-02-02T02:20:46.595Z,17.47
2019-02-02T02:23:15.861Z,17.57
2019-02-02T02:25:45.150Z,18.27
2019-02-02T02:28:14.418Z,18.03
2019-02-02T02:30:47.113Z,18.17
2019-02-02T02:33:14.620Z,21.20
2019-02-02T02:35:43.945Z,18.20
2019-02-02T02:38:13.180Z,19.40
2019-02-02T02:40:42.511Z,21.27
2019-02-02T02:43:11.825Z,20.93
2019-02-02T02:45:41.095Z,20.13
2019-02-02T02:48:10.329Z,22.27
2019-02-02T02:50:39.594Z,19.27
2019-02-02T02:53:08.974Z,23.33
2019-02-02T02:55:38.155Z,20.70
2019-02-02T02:58:07.421Z,19.73
2019-02-02T03:00:36.752Z,19.80
2019-02-02T03:03:06.299Z,21.73
2019-02-02T03:05:35.554Z,19.73
2019-02-02T03:08:05.097Z,23.57
2019-02-02T03:10:34.278Z,20.67
2019-02-02T03:13:03.515Z,21.23
2019-02-02T03:15:32.699Z,22.70
2019-02-02T03:18:01.998Z,18.20
2019-02-02T03:20:31.272Z,19.33
2019-02-02T03:23:00.600Z,22.37
2019-02-02T03:25:29.920Z,19.10
2019-02-02T03:27:59.159Z,20.23
2019-02-02T03:30:28.346Z,20.93
2019-02-02T03:32:57.582Z,18.77
2019-02-02T03:35:26.773Z,21.07
2019-02-02T03:37:55.999Z,19.87
2019-02-02T03:40:25.370Z,22.40
2019-02-02T03:42:54.586Z,20.03
2019-02-02T03:45:24.601Z,23.37
2019-02-02T03:47:54.740Z,19.83
2019-02-02T03:50:23.927Z,22.93
2019-02-02T03:52:53.153Z,21.63
2019-02-02T03:55:22.336Z,19.40
2019-02-02T03:57:51.528Z,21.27
2019-02-02T04:00:21.560Z,21.50
2019-02-02T04:02:51.062Z,22.53
2019-02-02T04:05:22.587Z,24.07
2019-02-02T04:07:51.998Z,21.03
2019-02-02T04:10:21.358Z,23.40
2019-02-02T04:12:50.516Z,21.13
2019-02-02T04:15:20.019Z,22.77
2019-02-02T04:17:49.278Z,20.90
2019-02-02T04:20:20.334Z,20.97
2019-02-02T04:22:49.731Z,20.80
2019-02-02T04:25:20.568Z,20.80
2019-02-02T04:27:49.933Z,25.43
2019-02-02T04:30:23.904Z,21.30
2019-02-02T04:32:53.442Z,24.13
2019-02-02T04:35:22.893Z,22.20
2019-02-02T04:37:52.131Z,21.97
2019-02-02T04:40:21.598Z,23.37
2019-02-02T04:42:50.920Z,21.60
2019-02-02T04:45:20.080Z,21.90
2019-02-02T04:47:49.537Z,24.07
2019-02-02T04:50:18.821Z,23.27
2019-02-02T04:52:48.148Z,22.90
2019-02-02T04:55:18.298Z,26.37
2019-02-02T04:57:47.795Z,21.53
2019-02-02T05:00:22.116Z,23.30
2019-02-02T05:02:51.983Z,22.37
2019-02-02T05:05:21.223Z,25.20
2019-02-02T05:07:50.703Z,24.00
2019-02-02T05:10:21.470Z,24.13
2019-02-02T05:12:50.795Z,23.77
2019-02-02T05:15:20.231Z,22.30
2019-02-02T05:17:49.406Z,23.63
2019-02-02T05:20:18.579Z,21.27
2019-02-02T05:22:47.965Z,22.77
2019-02-02T05:25:17.153Z,19.23
2019-02-02T05:27:46.336Z,22.03
2019-02-02T05:30:21.292Z,23.27
2019-02-02T05:32:50.495Z,22.70
2019-02-02T05:35:19.652Z,25.27
2019-02-02T05:37:48.878Z,22.20
2019-02-02T05:40:18.868Z,24.13
2019-02-02T05:42:48.172Z,22.73
2019-02-02T05:45:18.872Z,23.47
2019-02-02T05:47:48.155Z,22.87
2019-02-02T05:50:19.353Z,21.63
2019-02-02T05:52:48.679Z,23.47
2019-02-02T05:55:18.558Z,22.10
2019-02-02T05:57:47.879Z,23.67
2019-02-02T06:00:28.282Z,24.23
2019-02-02T06:02:57.467Z,24.80
2019-02-02T06:05:26.622Z,24.20
2019-02-02T06:07:55.814Z,26.90
2019-02-02T06:10:25.043Z,27.33
2019-02-02T06:12:54.296Z,27.57
2019-02-02T06:15:23.451Z,26.83
2019-02-02T06:17:52.717Z,29.30
2019-02-02T06:20:21.953Z,27.93
2019-02-02T06:22:51.132Z,28.07
2019-02-02T06:25:20.373Z,27.40
2019-02-02T06:27:49.624Z,26.30
2019-02-02T06:30:19.621Z,24.57
2019-02-02T06:32:48.875Z,28.50
2019-02-02T06:35:18.147Z,26.37
2019-02-02T06:37:47.760Z,25.87
2019-02-02T06:40:17.271Z,23.17
2019-02-02T06:42:46.559Z,24.70
2019-02-02T06:45:30.401Z,25.90
2019-02-02T06:47:59.988Z,28.33
2019-02-02T06:50:29.148Z,25.57
2019-02-02T06:52:58.983Z,28.17
2019-02-02T06:55:28.144Z,25.13
2019-02-02T06:57:57.469Z,25.47
2019-02-02T07:00:26.952Z,25.17
2019-02-02T07:02:56.539Z,26.00
2019-02-02T07:05:25.696Z,26.40
2019-02-02T07:07:54.888Z,30.03
2019-02-02T07:10:25.610Z,29.03
2019-02-02T07:12:54.799Z,31.43
2019-02-02T07:15:26.153Z,29.73
2019-02-02T07:17:55.411Z,29.93
2019-02-02T07:20:24.689Z,30.10
2019-02-02T07:22:53.856Z,27.87
2019-02-02T07:25:23.036Z,28.67
2019-02-02T07:27:52.190Z,31.00
2019-02-02T07:30:28.818Z,32.33
2019-02-02T07:32:53.684Z,29.70
2019-02-02T07:35:23.139Z,31.17
2019-02-02T07:37:52.480Z,30.13
2019-02-02T07:40:22.285Z,31.77
2019-02-02T07:42:51.496Z,30.43
2019-02-02T07:45:26.220Z,29.57
2019-02-02T07:47:55.384Z,31.60
2019-02-02T07:50:24.675Z,29.40
2019-02-02T07:52:53.826Z,30.37
2019-02-02T07:55:23.330Z,31.57
2019-02-02T07:57:52.481Z,32.03
2019-02-02T08:00:27.394Z,30.67
2019-02-02T08:02:56.924Z,31.33
2019-02-02T08:05:26.180Z,33.23
2019-02-02T08:07:55.408Z,29.43
2019-02-02T08:10:24.596Z,32.77
2019-02-02T08:12:53.759Z,30.47
2019-02-02T08:15:28.306Z,31.57
2019-02-02T08:17:57.611Z,33.70
2019-02-02T08:20:27.174Z,32.13
2019-02-02T08:22:56.715Z,35.73
2019-02-02T08:25:26.111Z,31.50
2019-02-02T08:27:55.355Z,32.37
2019-02-02T08:30:26.839Z,34.83
2019-02-02T08:32:56.069Z,30.67
2019-02-02T08:35:25.354Z,36.50
2019-02-02T08:37:54.711Z,31.73
2019-02-02T08:40:23.900Z,35.07
2019-02-02T08:42:53.219Z,31.77
2019-02-02T08:45:22.581Z,37.13
2019-02-02T08:47:51.740Z,32.57
2019-02-02T08:50:32.911Z,34.03
2019-02-02T08:53:02.349Z,32.30
2019-02-02T08:55:31.609Z,32.13
2019-02-02T08:58:01.510Z,37.83
2019-02-02T09:00:31.135Z,33.93
2019-02-02T09:03:00.313Z,37.57
2019-02-02T09:05:29.566Z,38.77
2019-02-02T09:07:58.791Z,46.47
2019-02-02T09:10:29.274Z,45.63
2019-02-02T09:12:58.851Z,44.37
2019-02-02T09:15:28.900Z,40.10
2019-02-02T09:17:58.060Z,31.80
2019-02-02T09:20:27.637Z,31.23
2019-02-02T09:23:06.064Z,35.13
2019-02-02T09:25:27.693Z,33.00
2019-02-02T09:27:57.015Z,32.23
2019-02-02T09:30:31.788Z,31.27
2019-02-02T09:33:01.222Z,33.50
2019-02-02T09:35:30.416Z,33.87
2019-02-02T09:37:59.715Z,31.70
2019-02-02T09:40:29.027Z,31.13
2019-02-02T09:42:58.768Z,34.23
2019-02-02T09:45:28.209Z,34.20
2019-02-02T09:47:57.431Z,35.73
2019-02-02T09:50:26.899Z,34.33
2019-02-02T09:52:56.268Z,34.83
2019-02-02T09:55:25.859Z,34.40
2019-02-02T09:57:57.407Z,37.90
2019-02-02T10:00:28.754Z,37.50
2019-02-02T10:02:58.563Z,34.80
2019-02-02T10:05:28.374Z,38.57
2019-02-02T10:07:57.558Z,45.83
2019-02-02T10:10:28.606Z,36.83
2019-02-02T10:12:57.904Z,37.43
2019-02-02T10:15:27.131Z,37.33
2019-02-02T10:17:56.318Z,37.03
2019-02-02T10:20:27.023Z,40.53
2019-02-02T10:22:57.076Z,38.83
2019-02-02T10:25:28.091Z,39.93
2019-02-02T10:27:57.272Z,38.50
2019-02-02T10:30:35.047Z,39.37
2019-02-02T10:33:04.741Z,40.20
2019-02-02T10:35:33.943Z,59.43
2019-02-02T10:38:03.215Z,44.47
2019-02-02T10:40:32.654Z,69.60
2019-02-02T10:43:01.859Z,46.33
2019-02-02T10:45:31.125Z,40.50
2019-02-02T10:48:00.380Z,42.17
2019-02-02T10:50:29.539Z,40.80
2019-02-02T10:53:02.055Z,39.57
2019-02-02T10:55:31.318Z,36.23
2019-02-02T10:58:01.307Z,38.60
2019-02-02T11:00:33.000Z,41.23
2019-02-02T11:03:02.204Z,37.40
2019-02-02T11:05:31.527Z,38.33
2019-02-02T11:08:00.916Z,40.20
2019-02-02T11:10:31.308Z,59.00
2019-02-02T11:13:00.923Z,57.80
2019-02-02T11:15:30.263Z,93.20
2019-02-02T11:17:59.597Z,100.93
2019-02-02T11:20:30.836Z,56.13
2019-02-02T11:23:00.112Z,42.63
2019-02-02T11:25:29.955Z,38.57
2019-02-02T11:27:59.279Z,40.47
2019-02-02T11:30:29.915Z,39.50
2019-02-02T11:32:59.204Z,42.80
2019-02-02T11:35:28.371Z,47.60
2019-02-02T11:37:57.583Z,42.63
2019-02-02T11:40:28.676Z,39.60
2019-02-02T11:42:58.167Z,39.27
2019-02-02T11:45:27.373Z,40.03
2019-02-02T11:47:56.636Z,40.60
2019-02-02T11:50:25.995Z,38.77
2019-02-02T11:52:55.284Z,39.33
2019-02-02T11:55:24.561Z,40.67
2019-02-02T11:57:53.815Z,39.73
2019-02-02T12:00:47.735Z,41.20
2019-02-02T12:03:16.934Z,42.63
2019-02-02T12:05:46.086Z,42.30
2019-02-02T12:08:15.350Z,40.43
2019-02-02T12:10:44.591Z,42.77
2019-02-02T12:13:13.850Z,44.37
2019-02-02T12:15:43.159Z,43.37
2019-02-02T12:18:12.392Z,43.17
2019-02-02T12:20:41.659Z,47.03
2019-02-02T12:23:10.915Z,43.73
2019-02-02T12:25:40.077Z,41.27
2019-02-02T12:28:09.456Z,38.43
2019-02-02T12:30:38.770Z,41.87
2019-02-02T12:33:08.064Z,39.90
2019-02-02T12:35:37.304Z,41.47
2019-02-02T12:38:06.739Z,36.53
2019-02-02T12:40:35.895Z,39.43
2019-02-02T12:43:05.490Z,41.70
2019-02-02T12:45:41.122Z,36.67
2019-02-02T12:48:10.278Z,36.07
2019-02-02T12:50:39.540Z,34.27
2019-02-02T12:53:08.771Z,35.87
2019-02-02T12:55:38.027Z,36.90
2019-02-02T12:58:07.595Z,34.60
2019-02-02T13:00:36.902Z,38.00
2019-02-02T13:03:06.992Z,35.17
2019-02-02T13:05:39.037Z,34.80
2019-02-02T13:08:07.208Z,35.40
2019-02-02T13:10:36.463Z,34.90
2019-02-02T13:13:05.818Z,35.73
2019-02-02T13:15:34.999Z,36.03
2019-02-02T13:18:04.201Z,40.10
2019-02-02T13:20:33.529Z,37.17
2019-02-02T13:23:02.792Z,36.57
2019-02-02T13:25:32.071Z,36.33
2019-02-02T13:28:01.303Z,38.13
2019-02-02T13:30:32.987Z,38.83
2019-02-02T13:33:02.320Z,38.17
2019-02-02T13:35:33.339Z,38.23
2019-02-02T13:38:02.659Z,39.90
2019-02-02T13:40:31.851Z,38.73
2019-02-02T13:43:01.040Z,43.90
2019-02-02T13:45:30.302Z,41.07
2019-02-02T13:47:59.597Z,43.40
2019-02-02T13:50:28.814Z,43.80
2019-02-02T13:52:58.075Z,42.47
2019-02-02T13:55:27.264Z,43.80
2019-02-02T13:57:56.509Z,43.63
2019-02-02T14:00:28.335Z,42.87
2019-02-02T14:03:02.769Z,42.20
2019-02-02T14:05:28.560Z,45.47
2019-02-02T14:08:00.051Z,43.73
2019-02-02T14:10:30.660Z,41.53
2019-02-02T14:13:00.020Z,43.20
2019-02-02T14:15:29.278Z,42.33
2019-02-02T14:17:58.436Z,42.37
2019-02-02T14:20:27.637Z,43.70
2019-02-02T14:22:56.848Z,41.07
2019-02-02T14:25:26.026Z,41.90
2019-02-02T14:27:55.179Z,44.40
2019-02-02T14:30:25.665Z,44.13
2019-02-02T14:32:55.412Z,42.33
2019-02-02T14:35:26.440Z,44.57
2019-02-02T14:37:55.868Z,42.30
2019-02-02T14:40:25.062Z,43.97
2019-02-02T14:42:54.238Z,45.13
2019-02-02T14:45:27.327Z,41.90
2019-02-02T14:47:55.908Z,45.67
2019-02-02T14:50:25.392Z,43.87
2019-02-02T14:52:54.891Z,43.37
2019-02-02T14:55:25.933Z,40.10
2019-02-02T14:57:55.339Z,40.70
2019-02-02T15:00:26.547Z,44.67
2019-02-02T15:02:55.759Z,39.67
2019-02-02T15:05:25.166Z,45.27
2019-02-02T15:07:54.547Z,41.47
2019-02-02T15:10:24.603Z,40.57
2019-02-02T15:12:54.010Z,40.73
2019-02-02T15:15:23.255Z,35.53
2019-02-02T15:17:52.440Z,38.83
2019-02-02T15:20:33.194Z,39.10
2019-02-02T15:23:02.476Z,40.03
2019-02-02T15:25:31.678Z,42.07
2019-02-02T15:28:00.875Z,39.40
2019-02-02T15:30:30.661Z,37.40
2019-02-02T15:32:59.871Z,34.43
2019-02-02T15:35:29.147Z,36.87
2019-02-02T15:37:58.502Z,35.13
2019-02-02T15:40:27.710Z,33.70
2019-02-02T15:42:56.997Z,31.97
2019-02-02T15:45:27.348Z,32.30
2019-02-02T15:47:56.559Z,29.97
2019-02-02T15:50:25.731Z,28.77
2019-02-02T15:52:55.274Z,31.50
2019-02-02T15:55:25.463Z,29.30
2019-02-02T15:57:54.651Z,31.30
2019-02-02T16:00:31.374Z,28.47
2019-02-02T16:03:00.912Z,29.43
2019-02-02T16:05:30.468Z,27.53
2019-02-02T16:08:01.029Z,29.50
2019-02-02T16:10:31.113Z,26.60
2019-02-02T16:13:00.611Z,30.63
2019-02-02T16:15:30.112Z,29.50
2019-02-02T16:17:59.440Z,30.10
2019-02-02T16:20:31.178Z,29.77
2019-02-02T16:23:00.564Z,29.60
2019-02-02T16:25:29.820Z,29.47
2019-02-02T16:27:59.051Z,29.10
2019-02-02T16:30:28.639Z,28.17
2019-02-02T16:32:58.011Z,30.10
2019-02-02T16:35:27.190Z,31.47
2019-02-02T16:37:56.459Z,29.73
2019-02-02T16:40:27.148Z,30.53
2019-02-02T16:42:56.741Z,34.13
2019-02-02T16:45:27.986Z,34.53
2019-02-02T16:47:57.139Z,31.63
2019-02-02T16:50:26.571Z,31.40
2019-02-02T16:52:55.719Z,30.37
2019-02-02T16:55:24.967Z,32.03
2019-02-02T16:57:54.436Z,32.60
2019-02-02T17:00:29.498Z,31.83
2019-02-02T17:02:58.800Z,34.27
2019-02-02T17:05:27.987Z,36.87
2019-02-02T17:07:57.148Z,36.90
2019-02-02T17:10:31.019Z,37.27
2019-02-02T17:13:00.188Z,37.40
2019-02-02T17:15:29.444Z,34.87
2019-02-02T17:17:58.635Z,32.63
2019-02-02T17:20:36.199Z,32.03
2019-02-02T17:23:05.759Z,31.20
2019-02-02T17:25:35.023Z,30.60
2019-02-02T17:28:04.880Z,33.57
2019-02-02T17:30:34.185Z,48.83
2019-02-02T17:33:05.123Z,34.13
2019-02-02T17:35:34.764Z,33.87
2019-02-02T17:38:04.278Z,33.23
2019-02-02T17:40:33.439Z,36.37
2019-02-02T17:43:02.831Z,35.83
2019-02-02T17:45:32.074Z,35.40
2019-02-02T17:48:01.375Z,37.83
2019-02-02T17:50:30.620Z,34.80
2019-02-02T17:52:59.955Z,33.77
2019-02-02T17:55:29.450Z,35.20
2019-02-02T17:57:58.635Z,33.03
2019-02-02T18:00:40.487Z,33.63
2019-02-02T18:03:09.685Z,31.43
2019-02-02T18:05:38.834Z,30.70
2019-02-02T18:08:08.134Z,31.13
2019-02-02T18:10:37.373Z,34.13
2019-02-02T18:13:06.651Z,29.53
2019-02-02T18:15:35.893Z,25.50
2019-02-02T18:18:05.875Z,32.03
2019-02-02T18:20:35.035Z,43.83
2019-02-02T18:23:04.424Z,38.13
2019-02-02T18:25:33.664Z,30.13
2019-02-02T18:28:02.932Z,30.27
2019-02-02T18:30:32.159Z,31.57
2019-02-02T18:33:01.410Z,31.17
2019-02-02T18:35:30.651Z,33.37
2019-02-02T18:37:59.837Z,35.63
2019-02-02T18:40:28.995Z,32.53
2019-02-02T18:42:58.627Z,28.67
2019-02-02T18:45:28.112Z,28.50
2019-02-02T18:47:57.365Z,30.73
2019-02-02T18:50:26.552Z,31.63
2019-02-02T18:52:56.027Z,25.90
2019-02-02T18:55:31.387Z,27.67
2019-02-02T18:58:00.619Z,26.40
2019-02-02T19:00:29.984Z,24.90
2019-02-02T19:02:59.131Z,28.57
2019-02-02T19:05:29.221Z,28.97
2019-02-02T19:07:58.646Z,41.20
2019-02-02T19:10:30.356Z,39.63
2019-02-02T19:12:59.515Z,44.97
2019-02-02T19:15:28.699Z,41.87
2019-02-02T19:17:57.864Z,37.47
2019-02-02T19:20:27.050Z,29.43
2019-02-02T19:22:57.154Z,30.30
2019-02-02T19:25:26.760Z,32.03
2019-02-02T19:27:55.927Z,29.57
2019-02-02T19:30:27.294Z,32.50
2019-02-02T19:32:56.473Z,57.30
2019-02-02T19:35:26.935Z,41.83
2019-02-02T19:37:56.094Z,34.73
2019-02-02T19:40:25.252Z,26.97
2019-02-02T19:42:54.503Z,25.97
2019-02-02T19:45:25.120Z,29.53
2019-02-02T19:47:54.314Z,27.80
2019-02-02T19:50:25.639Z,24.10
2019-02-02T19:52:55.211Z,25.07
2019-02-02T19:55:24.641Z,25.90
2019-02-02T19:57:53.886Z,21.87
2019-02-02T20:00:30.895Z,22.53
2019-02-02T20:03:00.640Z,22.23
2019-02-02T20:05:29.860Z,23.20
2019-02-02T20:07:59.112Z,22.20
2019-02-02T20:10:28.279Z,23.50
2019-02-02T20:12:57.594Z,22.30
2019-02-02T20:15:27.195Z,24.83
2019-02-02T20:18:08.996Z,22.80
2019-02-02T20:20:27.607Z,25.73
2019-02-02T20:22:57.155Z,23.83
2019-02-02T20:25:27.965Z,23.73
2019-02-02T20:27:57.164Z,23.00
2019-02-02T20:30:28.384Z,22.80
2019-02-02T20:32:57.771Z,23.37
2019-02-02T20:35:26.927Z,23.03
2019-02-02T20:37:56.179Z,25.47
2019-02-02T20:40:26.088Z,24.90
2019-02-02T20:42:55.660Z,24.77
2019-02-02T20:45:27.134Z,24.13
2019-02-02T20:47:56.498Z,23.43
2019-02-02T20:50:25.732Z,22.13
2019-02-02T20:52:54.983Z,22.80
2019-02-02T20:55:26.776Z,21.40
2019-02-02T20:57:57.406Z,21.87
2019-02-02T21:00:27.520Z,22.63
2019-02-02T21:02:56.947Z,22.77
2019-02-02T21:05:26.196Z,23.03
2019-02-02T21:07:55.466Z,22.57
2019-02-02T21:10:25.055Z,23.03
2019-02-02T21:12:54.407Z,28.50
2019-02-02T21:15:23.706Z,29.23
2019-02-02T21:17:53.183Z,27.00
2019-02-02T21:20:24.468Z,37.57
2019-02-02T21:22:54.128Z,31.37
2019-02-02T21:25:24.203Z,33.07
2019-02-02T21:27:53.449Z,31.20
2019-02-02T21:30:24.772Z,29.37
2019-02-02T21:32:54.037Z,29.30
2019-02-02T21:35:23.558Z,24.17
2019-02-02T21:37:52.780Z,25.53
2019-02-02T21:40:24.414Z,26.73
2019-02-02T21:42:53.654Z,27.30
2019-02-02T21:45:22.918Z,25.73
2019-02-02T21:47:52.539Z,27.90
2019-02-02T21:50:22.643Z,36.50
2019-02-02T21:52:52.215Z,30.97
2019-02-02T21:55:23.370Z,27.23
2019-02-02T21:57:52.599Z,31.77
2019-02-02T22:00:39.277Z,29.70
2019-02-02T22:03:08.912Z,31.13
2019-02-02T22:05:38.215Z,26.87
2019-02-02T22:08:09.317Z,29.30
2019-02-02T22:10:38.923Z,28.67
2019-02-02T22:13:08.664Z,32.13
2019-02-02T22:15:37.931Z,30.20
2019-02-02T22:18:07.099Z,32.10
2019-02-02T22:20:36.347Z,32.67
2019-02-02T22:23:05.759Z,35.43
2019-02-02T22:25:35.048Z,32.53
2019-02-02T22:28:04.561Z,33.13
2019-02-02T22:30:35.497Z,33.27
2019-02-02T22:33:05.103Z,34.30
2019-02-02T22:35:34.495Z,34.37
2019-02-02T22:38:04.118Z,32.40
2019-02-02T22:40:33.555Z,33.40
2019-02-02T22:43:02.797Z,34.60
2019-02-02T22:45:32.123Z,37.17
2019-02-02T22:48:01.453Z,36.87
2019-02-02T22:50:31.087Z,38.80
2019-02-02T22:53:00.237Z,35.03
2019-02-02T22:55:29.432Z,36.37
2019-02-02T22:57:58.743Z,37.20
2019-02-02T23:01:02.514Z,38.77
2019-02-02T23:03:50.433Z,40.83
2019-02-02T23:07:05.875Z,37.17
2019-02-02T23:10:13.357Z,40.93
2019-02-02T23:13:35.483Z,40.20
2019-02-02T23:16:26.576Z,42.40
2019-02-02T23:18:56.384Z,43.70
2019-02-02T23:21:26.321Z,44.77
2019-02-02T23:23:55.551Z,39.17
2019-02-02T23:26:24.923Z,44.23
2019-02-02T23:28:54.272Z,49.73
2019-02-02T23:31:24.116Z,49.13
2019-02-02T23:33:53.422Z,50.00
2019-02-02T23:36:22.610Z,49.33
2019-02-02T23:38:51.845Z,51.63
2019-02-02T23:41:21.213Z,50.33
2019-02-02T23:43:50.504Z,49.43
2019-02-02T23:46:19.924Z,54.37
2019-02-02T23:48:49.158Z,54.27
2019-02-02T23:51:18.414Z,54.57
2019-02-02T23:53:47.638Z,50.17
2019-02-02T23:56:17.019Z,52.23
2019-02-02T23:58:46.456Z,52.57
